createdAt,value
2018-05-21T00:00:42.075Z,65.86
2018-05-21T00:03:09.599Z,66.82
2018-05-21T00:05:37.131Z,66.56
2018-05-21T00:08:04.658Z,66.45
2018-05-21T00:10:32.180Z,66.21
2018-05-21T00:12:59.696Z,65.79
2018-05-21T00:15:27.199Z,65.60
2018-05-21T00:17:54.760Z,65.20
2018-05-21T00:20:22.287Z,64.62
2018-05-21T00:22:49.803Z,64.60
2018-05-21T00:25:17.307Z,64.03
2018-05-21T00:27:44.822Z,64.42
2018-05-21T00:30:12.373Z,63.84
2018-05-21T00:32:39.907Z,63.71
2018-05-21T00:35:07.463Z,63.37
2018-05-21T00:37:35.025Z,63.26
2018-05-21T00:40:02.550Z,62.41
2018-05-21T00:42:30.061Z,62.14
2018-05-21T00:44:57.560Z,62.89
2018-05-21T00:47:25.064Z,61.98
2018-05-21T00:49:52.572Z,62.89
2018-05-21T00:52:20.067Z,62.39
2018-05-21T00:54:59.407Z,62.27
2018-05-21T00:57:26.918Z,62.95
2018-05-21T00:59:54.430Z,62.13
2018-05-21T01:02:21.965Z,62.47
2018-05-21T01:04:49.483Z,62.70
2018-05-21T01:07:17.017Z,62.03
2018-05-21T01:09:44.533Z,62.64
2018-05-21T01:12:12.062Z,62.43
2018-05-21T01:14:39.581Z,62.53
2018-05-21T01:17:07.101Z,62.79
2018-05-21T01:19:34.624Z,62.54
2018-05-21T01:22:02.131Z,63.06
2018-05-21T01:24:29.649Z,63.00
2018-05-21T01:26:57.167Z,63.00
2018-05-21T01:29:24.706Z,63.54
2018-05-21T01:31:52.222Z,64.49
2018-05-21T01:34:19.739Z,63.67
2018-05-21T01:36:47.248Z,64.04
2018-05-21T01:39:14.754Z,64.06
2018-05-21T01:41:42.302Z,63.85
2018-05-21T01:44:09.811Z,64.00
2018-05-21T01:46:37.347Z,63.75
2018-05-21T01:49:04.893Z,64.15
2018-05-21T01:51:32.437Z,64.25
2018-05-21T01:53:59.981Z,64.08
2018-05-21T01:56:27.523Z,64.09
2018-05-21T01:58:55.036Z,64.31
2018-05-21T02:01:22.570Z,64.23
2018-05-21T02:03:50.095Z,64.60
2018-05-21T02:06:17.601Z,64.42
2018-05-21T02:08:45.118Z,64.89
2018-05-21T02:11:12.650Z,65.01
2018-05-21T02:13:40.171Z,64.73
2018-05-21T02:16:07.678Z,65.17
2018-05-21T02:18:35.199Z,65.46
2018-05-21T02:21:02.748Z,65.50
2018-05-21T02:23:30.316Z,65.48
2018-05-21T02:25:57.843Z,65.65
2018-05-21T02:28:25.354Z,65.76
2018-05-21T02:30:52.945Z,65.78
2018-05-21T02:33:20.514Z,66.02
2018-05-21T02:35:48.028Z,66.14
2018-05-21T02:38:15.556Z,66.08
2018-05-21T02:40:43.077Z,66.15
2018-05-21T02:43:10.632Z,66.14
2018-05-21T02:45:38.130Z,66.17
2018-05-21T02:48:05.645Z,66.59
2018-05-21T02:50:33.165Z,66.63
2018-05-21T02:53:00.694Z,66.53
2018-05-21T02:55:28.257Z,66.41
2018-05-21T02:57:55.783Z,66.49
2018-05-21T03:00:23.351Z,66.51
2018-05-21T03:02:50.871Z,66.35
2018-05-21T03:05:18.395Z,66.25
2018-05-21T03:07:45.920Z,66.39
2018-05-21T03:10:13.443Z,66.18
2018-05-21T03:12:41.015Z,66.40
2018-05-21T03:15:08.573Z,66.46
2018-05-21T03:17:36.099Z,66.69
2018-05-21T03:20:03.695Z,66.74
2018-05-21T03:22:31.216Z,66.93
2018-05-21T03:24:58.731Z,67.27
2018-05-21T03:27:26.266Z,67.03
2018-05-21T03:29:53.849Z,67.07
2018-05-21T03:32:21.380Z,67.35
2018-05-21T03:34:48.899Z,67.52
2018-05-21T03:37:16.421Z,67.70
2018-05-21T03:39:43.980Z,67.50
2018-05-21T03:42:11.558Z,67.23
2018-05-21T03:44:39.121Z,67.54
2018-05-21T03:47:06.719Z,67.43
2018-05-21T03:49:34.251Z,67.63
2018-05-21T03:52:01.766Z,67.82
2018-05-21T03:54:29.303Z,67.93
2018-05-21T03:56:56.899Z,67.95
2018-05-21T03:59:36.292Z,68.05
2018-05-21T04:02:15.632Z,67.96
2018-05-21T04:04:43.175Z,67.99
2018-05-21T04:07:10.699Z,68.02
2018-05-21T04:09:38.946Z,67.87
2018-05-21T04:12:06.463Z,68.06
2018-05-21T04:14:34.036Z,68.22
2018-05-21T04:17:01.547Z,68.05
2018-05-21T04:19:29.075Z,68.47
2018-05-21T04:21:56.601Z,68.33
2018-05-21T04:24:24.109Z,68.31
2018-05-21T04:26:51.630Z,68.09
2018-05-21T04:29:19.182Z,68.25
2018-05-21T04:31:46.718Z,68.02
2018-05-21T04:34:14.255Z,67.58
2018-05-21T04:36:41.766Z,67.77
2018-05-21T04:39:09.285Z,67.42
2018-05-21T04:41:36.837Z,67.59
2018-05-21T04:44:04.373Z,67.47
2018-05-21T04:46:31.901Z,67.87
2018-05-21T04:48:59.413Z,67.80
2018-05-21T04:51:26.919Z,67.26
2018-05-21T04:53:54.458Z,67.08
2018-05-21T04:56:21.986Z,67.17
2018-05-21T04:58:49.531Z,67.06
2018-05-21T05:01:17.051Z,67.23
2018-05-21T05:03:44.682Z,67.34
2018-05-21T05:06:12.259Z,67.19
2018-05-21T05:08:39.793Z,67.13
2018-05-21T05:11:07.338Z,67.05
2018-05-21T05:13:34.868Z,67.05
2018-05-21T05:16:02.437Z,67.02
2018-05-21T05:18:29.978Z,66.88
2018-05-21T05:20:57.524Z,66.95
2018-05-21T05:23:25.143Z,66.69
2018-05-21T05:25:52.655Z,66.50
2018-05-21T05:28:20.187Z,66.63
2018-05-21T05:30:48.301Z,66.36
2018-05-21T05:33:15.819Z,66.08
2018-05-21T05:35:43.396Z,66.12
2018-05-21T05:38:10.918Z,65.84
2018-05-21T05:40:38.460Z,66.06
2018-05-21T05:43:06.017Z,65.86
2018-05-21T05:45:33.524Z,65.75
2018-05-21T05:48:01.035Z,65.97
2018-05-21T05:50:28.556Z,65.47
2018-05-21T05:52:56.076Z,65.46
2018-05-21T05:55:23.675Z,65.63
2018-05-21T05:57:51.184Z,65.44
2018-05-21T06:00:18.751Z,65.34
2018-05-21T06:02:46.306Z,65.08
2018-05-21T06:05:13.876Z,65.10
2018-05-21T06:07:41.394Z,64.81
2018-05-21T06:10:09.028Z,64.91
2018-05-21T06:12:36.589Z,64.94
2018-05-21T06:15:04.175Z,64.51
2018-05-21T06:17:31.755Z,64.26
2018-05-21T06:19:59.363Z,64.08
2018-05-21T06:22:26.921Z,64.28
2018-05-21T06:24:54.525Z,63.32
2018-05-21T06:27:22.072Z,62.81
2018-05-21T06:29:49.594Z,63.06
2018-05-21T06:32:17.168Z,62.83
2018-05-21T06:34:44.728Z,62.29
2018-05-21T06:37:12.283Z,62.84
2018-05-21T06:39:39.828Z,61.87
2018-05-21T06:42:07.349Z,61.92
2018-05-21T06:44:34.884Z,61.98
2018-05-21T06:47:02.415Z,61.79
2018-05-21T06:49:29.936Z,61.59
2018-05-21T06:51:57.539Z,61.96
2018-05-21T06:54:25.064Z,61.16
2018-05-21T06:56:52.628Z,61.40
2018-05-21T06:59:20.157Z,61.40
2018-05-21T07:01:47.671Z,60.88
2018-05-21T07:04:15.211Z,60.59
2018-05-21T07:06:42.742Z,60.29
2018-05-21T07:09:10.247Z,60.09
2018-05-21T07:11:37.817Z,59.85
2018-05-21T07:14:05.370Z,59.73
2018-05-21T07:16:32.941Z,59.64
2018-05-21T07:19:00.451Z,60.13
2018-05-21T07:21:27.970Z,59.50
2018-05-21T07:23:55.486Z,59.22
2018-05-21T07:26:22.999Z,59.32
2018-05-21T07:28:50.574Z,58.38
2018-05-21T07:31:18.165Z,58.49
2018-05-21T07:33:45.682Z,58.58
2018-05-21T07:36:13.196Z,58.36
2018-05-21T07:38:40.756Z,57.94
2018-05-21T07:41:08.273Z,59.02
2018-05-21T07:43:35.807Z,58.52
2018-05-21T07:46:03.364Z,58.72
2018-05-21T07:48:30.886Z,58.48
2018-05-21T07:50:58.450Z,58.93
2018-05-21T07:53:25.979Z,57.95
2018-05-21T07:55:53.488Z,58.04
2018-05-21T07:58:21.056Z,58.19
2018-05-21T08:00:48.609Z,58.70
2018-05-21T08:03:16.123Z,59.00
2018-05-21T08:05:43.687Z,59.36
2018-05-21T08:08:11.211Z,59.41
2018-05-21T08:10:38.760Z,59.62
2018-05-21T08:13:06.269Z,60.24
2018-05-21T08:15:34.222Z,60.03
2018-05-21T08:18:01.736Z,60.44
2018-05-21T08:20:29.243Z,60.36
2018-05-21T08:22:56.747Z,60.48
2018-05-21T08:25:24.252Z,60.40
2018-05-21T08:27:51.802Z,59.70
2018-05-21T08:30:19.319Z,59.91
2018-05-21T08:32:46.849Z,60.38
2018-05-21T08:35:14.379Z,60.83
2018-05-21T08:37:41.921Z,61.71
2018-05-21T08:40:09.455Z,62.12
2018-05-21T08:42:37.004Z,62.32
2018-05-21T08:45:04.519Z,62.50
2018-05-21T08:47:32.031Z,62.00
2018-05-21T08:49:59.549Z,61.68
2018-05-21T08:52:27.129Z,62.23
2018-05-21T08:54:54.616Z,61.67
2018-05-21T08:57:22.122Z,61.62
2018-05-21T08:59:49.691Z,61.52
2018-05-21T09:02:17.203Z,61.22
2018-05-21T09:04:44.773Z,61.05
2018-05-21T09:07:12.313Z,61.08
2018-05-21T09:09:39.822Z,61.59
2018-05-21T09:12:07.345Z,61.60
2018-05-21T09:14:34.855Z,61.75
2018-05-21T09:17:02.407Z,61.96
2018-05-21T09:19:29.925Z,61.18
2018-05-21T09:21:57.434Z,61.27
2018-05-21T09:24:24.992Z,61.44
2018-05-21T09:26:52.531Z,61.22
2018-05-21T09:29:20.067Z,60.98
2018-05-21T09:31:47.585Z,61.02
2018-05-21T09:34:15.110Z,61.02
2018-05-21T09:36:42.641Z,61.58
2018-05-21T09:39:10.158Z,61.22
2018-05-21T09:44:02.833Z,61.04
2018-05-21T09:46:30.343Z,60.01
2018-05-21T09:48:57.872Z,60.42
2018-05-21T09:51:25.414Z,59.99
2018-05-21T09:53:52.989Z,61.04
2018-05-21T09:56:20.508Z,61.33
2018-05-21T09:58:48.044Z,60.19
2018-05-21T10:01:15.561Z,60.33
2018-05-21T10:03:43.067Z,59.47
2018-05-21T10:06:10.590Z,59.76
2018-05-21T10:08:38.093Z,58.79
2018-05-21T10:11:05.598Z,59.02
2018-05-21T10:13:33.118Z,59.03
2018-05-21T10:16:00.657Z,59.33
2018-05-21T10:18:28.163Z,58.59
2018-05-21T10:20:55.691Z,58.38
2018-05-21T10:23:23.206Z,58.70
2018-05-21T10:25:50.714Z,57.66
2018-05-21T10:28:18.235Z,57.91
2018-05-21T10:30:46.164Z,57.49
2018-05-21T10:33:13.692Z,57.45
2018-05-21T10:35:41.210Z,57.06
2018-05-21T10:38:08.768Z,57.13
2018-05-21T10:40:36.332Z,57.52
2018-05-21T10:43:03.886Z,56.82
2018-05-21T10:45:31.425Z,57.16
2018-05-21T10:47:58.962Z,56.37
2018-05-21T10:50:26.511Z,56.70
2018-05-21T10:52:54.088Z,56.74
2018-05-21T10:55:21.702Z,57.02
2018-05-21T10:57:49.230Z,56.42
2018-05-21T11:00:16.790Z,56.31
2018-05-21T11:02:44.486Z,56.04
2018-05-21T11:05:12.072Z,56.00
2018-05-21T11:07:39.611Z,56.32
2018-05-21T11:10:07.208Z,56.07
2018-05-21T11:12:34.725Z,55.58
2018-05-21T11:15:02.309Z,55.83
2018-05-21T11:17:29.886Z,55.14
2018-05-21T11:19:57.398Z,55.27
2018-05-21T11:22:24.948Z,55.57
2018-05-21T11:24:52.458Z,55.10
2018-05-21T11:27:20.007Z,54.64
2018-05-21T11:29:47.511Z,55.42
2018-05-21T11:32:15.035Z,54.94
2018-05-21T11:34:42.555Z,55.44
2018-05-21T11:37:10.114Z,54.98
2018-05-21T11:39:37.652Z,55.68
2018-05-21T11:42:05.205Z,55.56
2018-05-21T11:44:32.768Z,54.97
2018-05-21T11:47:00.299Z,55.25
2018-05-21T11:49:27.874Z,55.90
2018-05-21T11:51:55.426Z,55.70
2018-05-21T11:54:22.999Z,56.58
2018-05-21T11:56:50.520Z,56.82
2018-05-21T11:59:18.068Z,57.19
2018-05-21T12:01:46.302Z,56.25
2018-05-21T12:04:13.817Z,57.15
2018-05-21T12:06:41.343Z,56.87
2018-05-21T12:09:08.853Z,57.34
2018-05-21T12:11:36.371Z,55.97
2018-05-21T12:14:03.917Z,55.86
2018-05-21T12:16:31.487Z,56.11
2018-05-21T12:18:59.023Z,56.61
2018-05-21T12:21:26.574Z,57.17
2018-05-21T12:23:54.094Z,57.68
2018-05-21T12:26:21.647Z,58.25
2018-05-21T12:28:49.256Z,57.17
2018-05-21T12:31:16.737Z,57.53
2018-05-21T12:33:44.265Z,57.34
2018-05-21T12:36:11.803Z,57.34
2018-05-21T12:38:39.315Z,57.85
2018-05-21T12:41:06.827Z,58.27
2018-05-21T12:43:34.378Z,58.81
2018-05-21T12:46:01.943Z,59.81
2018-05-21T12:48:29.469Z,57.84
2018-05-21T12:50:57.008Z,57.05
2018-05-21T12:53:24.558Z,56.54
2018-05-21T12:55:52.103Z,55.91
2018-05-21T12:58:19.676Z,54.74
2018-05-21T13:00:47.238Z,52.67
2018-05-21T13:03:14.808Z,52.23
2018-05-21T13:05:42.332Z,52.30
2018-05-21T13:08:09.949Z,51.99
2018-05-21T13:10:37.461Z,51.70
2018-05-21T13:13:05.054Z,51.73
2018-05-21T13:15:32.571Z,50.51
2018-05-21T13:18:00.070Z,51.46
2018-05-21T13:20:27.563Z,51.67
2018-05-21T13:22:55.077Z,51.08
2018-05-21T13:25:22.579Z,50.90
2018-05-21T13:27:50.076Z,49.45
2018-05-21T13:30:17.604Z,49.21
2018-05-21T13:32:45.119Z,49.77
2018-05-21T13:35:12.623Z,50.12
2018-05-21T13:37:40.187Z,50.42
2018-05-21T13:40:07.719Z,50.50
2018-05-21T13:42:35.244Z,49.73
2018-05-21T13:45:02.778Z,49.11
2018-05-21T13:47:30.317Z,49.69
2018-05-21T13:49:57.875Z,49.90
2018-05-21T13:52:25.418Z,49.29
2018-05-21T13:54:52.970Z,49.64
2018-05-21T13:57:20.505Z,49.68
2018-05-21T13:59:48.027Z,49.81
2018-05-21T14:02:15.558Z,50.71
2018-05-21T14:04:43.090Z,51.00
2018-05-21T14:07:10.611Z,51.22
2018-05-21T14:09:38.153Z,51.85
2018-05-21T14:12:05.658Z,51.68
2018-05-21T14:14:33.198Z,51.29
2018-05-21T14:17:00.738Z,51.79
2018-05-21T14:19:28.236Z,52.15
2018-05-21T14:21:55.772Z,51.87
2018-05-21T14:24:23.314Z,51.32
2018-05-21T14:26:50.844Z,51.67
2018-05-21T14:29:18.369Z,49.74
2018-05-21T14:31:45.871Z,49.72
2018-05-21T14:34:13.398Z,49.79
2018-05-21T14:36:40.914Z,49.94
2018-05-21T14:39:08.488Z,49.80
2018-05-21T14:41:36.003Z,50.32
2018-05-21T14:44:03.546Z,50.94
2018-05-21T14:46:31.061Z,51.69
2018-05-21T14:48:58.571Z,51.56
2018-05-21T14:51:26.132Z,51.59
2018-05-21T14:53:53.661Z,51.91
2018-05-21T14:56:21.247Z,52.09
2018-05-21T14:58:48.769Z,52.06
2018-05-21T15:01:16.296Z,52.34
2018-05-21T15:03:43.818Z,52.71
2018-05-21T15:06:11.352Z,53.16
2018-05-21T15:08:39.414Z,53.31
2018-05-21T15:11:06.917Z,53.65
2018-05-21T15:13:34.473Z,54.04
2018-05-21T15:16:02.041Z,53.93
2018-05-21T15:18:29.597Z,54.09
2018-05-21T15:20:57.163Z,53.79
2018-05-21T15:23:24.683Z,53.88
2018-05-21T15:25:52.248Z,54.24
2018-05-21T15:28:19.909Z,54.57
2018-05-21T15:30:47.478Z,54.30
2018-05-21T15:33:15.014Z,54.87
2018-05-21T15:35:42.549Z,55.37
2018-05-21T15:38:10.081Z,55.13
2018-05-21T15:40:37.610Z,55.49
2018-05-21T15:43:05.141Z,55.76
2018-05-21T15:45:32.771Z,56.18
2018-05-21T15:48:00.330Z,55.91
2018-05-21T15:50:27.843Z,56.29
2018-05-21T15:52:55.364Z,56.75
2018-05-21T15:55:22.896Z,56.69
2018-05-21T15:57:50.436Z,57.35
2018-05-21T16:00:17.976Z,58.67
2018-05-21T16:02:45.478Z,59.41
2018-05-21T16:05:13.322Z,61.75
2018-05-21T16:07:40.877Z,62.48
2018-05-21T16:10:09.221Z,64.23
2018-05-21T16:12:36.745Z,64.37
2018-05-21T16:15:04.314Z,65.70
2018-05-21T16:17:31.845Z,65.77
2018-05-21T16:19:59.394Z,66.03
2018-05-21T16:22:26.935Z,66.38
2018-05-21T16:24:54.472Z,66.78
2018-05-21T16:27:22.060Z,66.40
2018-05-21T16:29:49.641Z,67.53
2018-05-21T16:32:17.247Z,68.02
2018-05-21T16:34:44.824Z,68.00
2018-05-21T16:37:12.395Z,68.24
2018-05-21T16:39:39.997Z,68.34
2018-05-21T16:42:07.855Z,68.57
2018-05-21T16:44:35.493Z,67.83
2018-05-21T16:47:03.032Z,66.36
2018-05-21T16:49:31.334Z,66.37
2018-05-21T16:51:58.900Z,66.41
2018-05-21T16:54:26.492Z,65.07
2018-05-21T16:56:54.042Z,66.98
2018-05-21T16:59:21.658Z,66.47
2018-05-21T17:01:49.225Z,67.21
2018-05-21T17:04:16.727Z,67.44
2018-05-21T17:06:44.351Z,67.68
2018-05-21T17:09:12.800Z,67.55
2018-05-21T17:11:41.730Z,67.63
2018-05-21T17:14:09.266Z,67.65
2018-05-21T17:16:36.889Z,64.84
2018-05-21T17:19:04.424Z,65.11
2018-05-21T17:21:32.136Z,65.55
2018-05-21T17:23:59.734Z,65.76
2018-05-21T17:26:27.293Z,64.29
2018-05-21T17:28:54.945Z,65.66
2018-05-21T17:31:22.588Z,63.97
2018-05-21T17:33:50.128Z,63.99
2018-05-21T17:36:17.742Z,63.42
2018-05-21T17:38:45.304Z,65.61
2018-05-21T17:41:12.894Z,64.35
2018-05-21T17:43:40.407Z,65.89
2018-05-21T17:46:07.967Z,64.98
2018-05-21T17:48:35.734Z,65.11
2018-05-21T17:51:03.278Z,65.58
2018-05-21T17:53:34.948Z,66.63
2018-05-21T17:56:02.556Z,65.23
2018-05-21T17:58:30.114Z,63.71
2018-05-21T18:00:58.619Z,65.11
2018-05-21T18:03:26.132Z,65.24
2018-05-21T18:05:53.702Z,64.56
2018-05-21T18:08:21.987Z,64.90
2018-05-21T18:10:49.531Z,65.57
2018-05-21T18:13:17.075Z,64.71
2018-05-21T18:15:44.662Z,65.13
2018-05-21T18:18:12.230Z,65.08
2018-05-21T18:20:39.783Z,66.29
2018-05-21T18:23:07.366Z,65.28
2018-05-21T18:25:34.923Z,66.07
2018-05-21T18:28:02.574Z,66.32
2018-05-21T18:30:30.206Z,65.88
2018-05-21T18:32:59.151Z,65.65
2018-05-21T18:35:26.691Z,65.27
2018-05-21T18:37:54.251Z,65.57
2018-05-21T18:40:21.833Z,65.12
2018-05-21T18:42:49.357Z,65.67
2018-05-21T18:45:16.963Z,65.66
2018-05-21T18:47:44.527Z,65.80
2018-05-21T18:50:12.047Z,65.29
2018-05-21T18:52:39.622Z,65.00
2018-05-21T18:55:07.189Z,65.58
2018-05-21T18:57:34.760Z,65.12
2018-05-21T19:00:04.809Z,65.39
2018-05-21T19:02:33.555Z,65.57
2018-05-21T19:05:01.104Z,65.73
2018-05-21T19:07:28.713Z,65.91
2018-05-21T19:09:56.381Z,65.58
2018-05-21T19:12:24.708Z,66.46
2018-05-21T19:14:52.277Z,65.88
2018-05-21T19:17:19.918Z,66.68
2018-05-21T19:19:47.638Z,66.00
2018-05-21T19:22:15.175Z,66.94
2018-05-21T19:24:42.722Z,66.53
2018-05-21T19:27:12.714Z,66.72
2018-05-21T19:29:40.272Z,66.62
2018-05-21T19:32:07.839Z,65.98
2018-05-21T19:34:35.388Z,66.35
2018-05-21T19:37:02.923Z,65.57
2018-05-21T19:39:30.581Z,66.57
2018-05-21T19:41:58.857Z,66.11
2018-05-21T19:44:26.709Z,66.66
2018-05-21T19:46:54.401Z,67.11
2018-05-21T19:49:22.006Z,67.39
2018-05-21T19:51:49.992Z,66.96
2018-05-21T19:54:17.713Z,67.16
2018-05-21T19:56:45.352Z,67.16
2018-05-21T19:59:12.896Z,67.18
2018-05-21T20:01:40.659Z,67.16
2018-05-21T20:04:08.376Z,67.07
2018-05-21T20:06:35.895Z,66.91
2018-05-21T20:09:04.328Z,67.09
2018-05-21T20:11:31.940Z,67.20
2018-05-21T20:13:59.567Z,66.83
2018-05-21T20:16:27.109Z,67.34
2018-05-21T20:18:54.647Z,67.17
2018-05-21T20:21:22.198Z,67.54
2018-05-21T20:23:49.790Z,67.42
2018-05-21T20:26:17.369Z,67.36
2018-05-21T20:28:44.972Z,67.54
2018-05-21T20:31:12.518Z,67.40
2018-05-21T20:33:40.043Z,67.47
2018-05-21T20:36:07.566Z,67.17
2018-05-21T20:38:35.100Z,67.33
2018-05-21T20:41:02.623Z,67.47
2018-05-21T20:43:30.201Z,67.41
2018-05-21T20:45:57.760Z,67.45
2018-05-21T20:48:25.325Z,67.37
2018-05-21T20:50:52.878Z,67.62
2018-05-21T20:53:20.420Z,67.72
2018-05-21T20:55:47.958Z,68.16
2018-05-21T20:58:15.530Z,68.31
2018-05-21T21:00:43.046Z,67.96
2018-05-21T21:03:10.578Z,67.82
2018-05-21T21:05:38.102Z,68.11
2018-05-21T21:08:05.625Z,68.15
2018-05-21T21:10:33.187Z,68.46
2018-05-21T21:13:00.719Z,68.33
2018-05-21T21:15:28.255Z,68.42
2018-05-21T21:17:55.801Z,68.54
2018-05-21T21:20:23.319Z,68.52
2018-05-21T21:22:50.868Z,68.79
2018-05-21T21:25:18.456Z,68.63
2018-05-21T21:27:45.951Z,68.90
2018-05-21T21:30:13.484Z,69.08
2018-05-21T21:32:41.097Z,69.76
2018-05-21T21:35:08.562Z,69.80
2018-05-21T21:37:36.084Z,69.88
2018-05-21T21:40:03.684Z,70.23
2018-05-21T21:42:31.215Z,70.43
2018-05-21T21:44:58.772Z,70.55
2018-05-21T21:47:26.380Z,71.00
2018-05-21T21:49:53.896Z,71.01
2018-05-21T21:52:21.455Z,71.44
2018-05-21T21:54:49.038Z,71.50
2018-05-21T21:57:16.659Z,71.69
2018-05-21T21:59:44.236Z,71.93
2018-05-21T22:02:11.773Z,71.74
2018-05-21T22:04:39.300Z,71.36
2018-05-21T22:07:06.840Z,70.96
2018-05-21T22:09:34.423Z,71.09
2018-05-21T22:12:01.955Z,70.97
2018-05-21T22:14:29.548Z,70.77
2018-05-21T22:16:57.070Z,70.78
2018-05-21T22:19:24.597Z,70.81
2018-05-21T22:21:52.122Z,70.57
2018-05-21T22:24:19.644Z,70.56
2018-05-21T22:26:47.165Z,70.80
2018-05-21T22:29:14.673Z,70.56
2018-05-21T22:31:42.186Z,69.90
2018-05-21T22:34:09.748Z,69.69
2018-05-21T22:36:37.280Z,69.50
2018-05-21T22:39:05.592Z,69.03
2018-05-21T22:41:33.113Z,68.97
2018-05-21T22:44:00.652Z,69.03
2018-05-21T22:46:28.175Z,69.10
2018-05-21T22:48:55.682Z,69.17
2018-05-21T22:51:23.198Z,69.40
2018-05-21T22:53:50.780Z,69.43
2018-05-21T22:56:18.296Z,69.68
2018-05-21T22:58:45.817Z,69.36
2018-05-21T23:01:13.323Z,69.45
2018-05-21T23:03:40.833Z,69.70
2018-05-21T23:06:08.357Z,69.38
2018-05-21T23:08:35.891Z,69.60
2018-05-21T23:11:03.423Z,69.76
2018-05-21T23:13:30.952Z,69.84
2018-05-21T23:15:58.499Z,69.97
2018-05-21T23:18:26.075Z,69.89
2018-05-21T23:20:53.600Z,69.88
2018-05-21T23:23:21.172Z,70.01
2018-05-21T23:25:48.771Z,70.31
2018-05-21T23:28:16.281Z,70.35
2018-05-21T23:30:43.846Z,70.30
2018-05-21T23:33:11.386Z,70.36
2018-05-21T23:35:38.919Z,70.36
2018-05-21T23:38:06.452Z,70.10
2018-05-21T23:40:33.964Z,69.95
2018-05-21T23:43:01.499Z,69.91
2018-05-21T23:45:29.031Z,69.80
2018-05-21T23:47:56.561Z,70.06
2018-05-21T23:50:24.083Z,70.28
2018-05-21T23:52:51.615Z,70.27
2018-05-21T23:55:19.169Z,70.30
2018-05-21T23:57:46.696Z,70.43
